Airfield :
LOGIN :

Register | Disclaimer

   EN    FR    IT 

 










Legend :    VFR   Marginal VFR   IFR   Intensive IFR   Very Intensive IFR
Visi :
Ceiling :
>= 8 km
>= 3000ft
5 to 8 km
1000 to 3000 ft
1500m to 5 km
500 to 1000 ft
800 to 1500m
200 to 500 ft
< 800m
< 200 ft
Symbols :   Thunderstorms  Fog  Heavy snow  Heavy precipitations  Wind > 20 kt
SIGMETs :     Misc.  Thunderstorms  Icing  Turbulence  Mountain Waves  Volcanic Ashes







- Airport Elevation : 63 ft
- IATA code : BZM


EHWO - Woensdrecht Airbase

CURRENT METAR :
  • 210355Z AUTO 31004KT 250V320 9999 BKN100 17/15 Q1011 BLU

EXPIRED METARs :
  • 210325Z AUTO 30003KT 270V330 9999 FEW100 17/15 Q1011 BLU
  • 210255Z AUTO VRB02KT 9999 FEW015CB OVC100 18/15 Q1011 BLU
  • 210225Z AUTO 36004KT 310V040 9999 BKN081 OVC087 19/15 Q1011 BLU
  • 210155Z AUTO 31003KT 260V350 9999 FEW016CB BKN078 OVC085 19/15 Q1011 BLU
  • 210125Z AUTO 36003KT 300V030 9999 BKN070 OVC076 19/14 Q1011 BLU

Expired Forecast.
No reported NOTAMs for that airfield.



MET'MAP, your aeronautical weather chart ! - Copyright ORBIFLY December 2007 - Disclaimer

ORBIFLY MET'MAP TEAM :

Programming & Development : Alexandra Zaïnal
Concept & Development : Baudouin d'Aumeries
Co-Development & Prog : Marc-Olivier Méhu
Technical & hardware support : Manuel Goepfert

Contact : metmap@orbifly.com




SOURCES & CREDITS :

   NOAA